Time;durP1;ratioP1;P1;durP2;ratioP2;P2;SDS_P1;SDS_P2;PMS_P1;PMS_P2;Temp;Humidity;BMP_temperature;BMP_pressure;BME280_temperature;BME280_humidity;BME280_pressure;Samples;Min_cycle;Max_cycle;Signal;HPM_P1;HPM_P2
2023/03/06 00:00:31;;;;;;;5.20;2.20;;;4.60;99.90;;;;;;4923353;29;20467;-69
2023/03/06 00:02:57;;;;;;;4.73;2.33;;;4.60;99.90;;;;;;4921386;29;20454;-68
2023/03/06 00:05:23;;;;;;;9.00;2.40;;;4.60;99.90;;;;;;4923986;29;20479;-69
2023/03/06 00:07:48;;;;;;;3.53;2.23;;;4.50;99.90;;;;;;4929675;28;20470;-68
2023/03/06 00:10:17;;;;;;;5.00;2.80;;;4.40;99.90;;;;;;4931831;29;20232;-69
2023/03/06 00:12:43;;;;;;;4.30;2.80;;;4.50;99.90;;;;;;4931944;28;20227;-68
2023/03/06 00:15:09;;;;;;;4.80;2.93;;;4.60;99.90;;;;;;4920385;29;20490;-68
2023/03/06 00:17:35;;;;;;;3.27;2.17;;;4.70;99.90;;;;;;4927076;28;20301;-69
2023/03/06 00:20:02;;;;;;;2.47;1.80;;;4.80;99.90;;;;;;4918644;29;20453;-69
2023/03/06 00:22:27;;;;;;;2.30;2.07;;;4.80;99.90;;;;;;4906745;29;20463;-69
2023/03/06 00:24:53;;;;;;;5.00;2.30;;;4.90;99.90;;;;;;4919334;29;20483;-70
2023/03/06 00:27:20;;;;;;;3.40;2.37;;;5.00;99.90;;;;;;4919724;29;20222;-69
2023/03/06 00:29:48;;;;;;;2.87;1.90;;;5.10;99.90;;;;;;4943714;28;20306;-69
2023/03/06 00:32:14;;;;;;;3.03;2.10;;;5.10;99.90;;;;;;4916403;29;20471;-69
2023/03/06 00:34:40;;;;;;;2.17;1.97;;;5.20;99.90;;;;;;4927394;28;20904;-67
2023/03/06 00:37:06;;;;;;;5.70;2.73;;;5.20;99.90;;;;;;4922928;29;20474;-69
2023/03/06 00:39:32;;;;;;;2.20;1.70;;;5.20;99.90;;;;;;4906052;28;20538;-69
2023/03/06 00:41:58;;;;;;;2.80;2.00;;;5.20;99.90;;;;;;4915841;29;20292;-69
2023/03/06 00:44:24;;;;;;;3.70;2.23;;;5.20;99.90;;;;;;4912793;29;20275;-69
2023/03/06 00:46:49;;;;;;;5.00;2.20;;;5.20;99.90;;;;;;4922986;29;20310;-69
2023/03/06 00:49:15;;;;;;;2.30;1.80;;;5.20;99.90;;;;;;4945521;28;20295;-68
2023/03/06 00:51:41;;;;;;;2.87;2.57;;;5.10;99.90;;;;;;4922550;28;20277;-69
2023/03/06 00:54:06;;;;;;;4.80;2.20;;;5.10;99.90;;;;;;4922186;29;20314;-69
2023/03/06 00:56:32;;;;;;;3.33;1.90;;;5.10;99.90;;;;;;4923503;29;20246;-68
2023/03/06 00:58:57;;;;;;;4.10;2.60;;;5.10;99.90;;;;;;4948387;28;20227;-68
2023/03/06 01:01:24;;;;;;;2.77;2.37;;;5.00;99.90;;;;;;4923194;28;20239;-67
2023/03/06 01:03:49;;;;;;;4.60;2.70;;;4.90;99.90;;;;;;4921597;29;20489;-69
2023/03/06 01:06:16;;;;;;;3.80;2.20;;;5.00;99.90;;;;;;4927678;28;20238;-69
2023/03/06 01:08:41;;;;;;;2.53;2.10;;;4.90;99.90;;;;;;4939100;28;20226;-68
2023/03/06 01:11:07;;;;;;;2.50;2.30;;;4.90;99.90;;;;;;4929606;29;20481;-69
2023/03/06 01:13:33;;;;;;;3.60;2.33;;;4.80;99.90;;;;;;4928055;28;20246;-69
2023/03/06 01:16:07;;;;;;;3.63;2.80;;;4.80;99.90;;;;;;4921833;29;20353;-69
2023/03/06 01:18:33;;;;;;;3.67;2.57;;;4.50;99.90;;;;;;4915535;29;20241;-67
2023/03/06 01:21:00;;;;;;;3.97;2.40;;;4.40;99.90;;;;;;4928718;28;20474;-69
2023/03/06 01:23:26;;;;;;;4.23;2.93;;;4.40;99.90;;;;;;4916698;28;20478;-67
2023/03/06 01:25:54;;;;;;;4.23;3.03;;;4.40;99.90;;;;;;4919541;29;20243;-69
2023/03/06 01:28:20;;;;;;;7.83;3.10;;;4.40;99.90;;;;;;4906014;29;20489;-68
2023/03/06 01:30:45;;;;;;;3.53;2.50;;;4.40;99.90;;;;;;4923178;28;20232;-69
2023/03/06 01:33:11;;;;;;;6.13;3.20;;;4.40;99.90;;;;;;4908686;29;20611;-69
2023/03/06 01:35:37;;;;;;;4.63;2.90;;;4.30;99.90;;;;;;4914228;29;20598;-68
2023/03/06 01:38:04;;;;;;;4.93;2.60;;;4.40;99.90;;;;;;4921002;29;20226;-68
2023/03/06 01:40:31;;;;;;;5.43;3.30;;;4.40;99.90;;;;;;4919491;29;20458;-69
2023/03/06 01:42:57;;;;;;;3.67;2.60;;;4.40;99.90;;;;;;4937919;28;20371;-69
2023/03/06 01:45:23;;;;;;;5.00;2.60;;;4.40;99.90;;;;;;4912223;29;20558;-69
2023/03/06 01:47:48;;;;;;;4.73;2.67;;;4.40;99.90;;;;;;4927106;28;20242;-69
2023/03/06 01:50:14;;;;;;;4.80;2.90;;;4.30;99.90;;;;;;4914673;29;20219;-69
2023/03/06 01:52:49;;;;;;;3.50;2.80;;;4.40;99.90;;;;;;4926726;29;20277;-68
2023/03/06 01:55:20;;;;;;;4.33;3.03;;;4.30;99.90;;;;;;4947116;28;20467;-69
2023/03/06 01:57:51;;;;;;;3.20;2.50;;;4.30;99.90;;;;;;4905916;29;20458;-69
2023/03/06 02:00:21;;;;;;;4.17;2.90;;;4.30;99.90;;;;;;4918713;29;20487;-69
2023/03/06 02:02:52;;;;;;;11.57;3.20;;;4.30;99.90;;;;;;4916985;29;20542;-69
2023/03/06 02:05:18;;;;;;;3.73;2.50;;;4.30;99.90;;;;;;4941854;28;20522;-68
2023/03/06 02:07:46;;;;;;;4.63;3.10;;;4.20;99.90;;;;;;4921874;29;20467;-69
2023/03/06 02:10:14;;;;;;;5.83;3.80;;;4.10;99.90;;;;;;4927997;28;20723;-68
2023/03/06 02:12:42;;;;;;;4.60;2.90;;;4.00;99.90;;;;;;4941833;28;20463;-67
2023/03/06 02:15:14;;;;;;;4.73;2.73;;;3.90;99.90;;;;;;4929726;29;20532;-69
2023/03/06 02:17:42;;;;;;;4.57;3.33;;;3.90;99.90;;;;;;4921417;29;20467;-68
2023/03/06 02:20:25;;;;;;;4.30;3.03;;;3.90;99.90;;;;;;4922808;29;20459;-69
2023/03/06 02:23:06;;;;;;;4.77;2.83;;;3.90;99.90;;;;;;4910832;29;20466;-69
2023/03/06 02:25:35;;;;;;;4.47;3.23;;;3.90;99.90;;;;;;4923737;29;20585;-69
2023/03/06 02:28:02;;;;;;;6.13;3.30;;;3.80;99.90;;;;;;4919069;29;20455;-68
2023/03/06 02:30:29;;;;;;;6.70;3.67;;;3.90;99.90;;;;;;4925775;28;20469;-69
2023/03/06 02:32:55;;;;;;;3.90;2.70;;;4.00;99.90;;;;;;4931337;29;20453;-69
2023/03/06 02:35:27;;;;;;;3.77;3.17;;;4.10;99.90;;;;;;4926000;28;20479;-69
2023/03/06 02:37:55;;;;;;;3.20;2.40;;;4.10;99.90;;;;;;4918618;29;20451;-69
2023/03/06 02:40:22;;;;;;;5.53;3.30;;;4.10;99.90;;;;;;4915397;29;20463;-69
2023/03/06 02:42:51;;;;;;;3.77;3.00;;;4.20;99.90;;;;;;4903780;29;20440;-68
2023/03/06 02:45:35;;;;;;;3.30;2.33;;;4.30;99.90;;;;;;4929886;28;20482;-68
2023/03/06 02:48:01;;;;;;;6.20;2.70;;;4.30;99.90;;;;;;4920153;29;21052;-69
2023/03/06 02:50:28;;;;;;;4.77;2.80;;;4.40;99.90;;;;;;4917314;29;20495;-68
2023/03/06 02:52:53;;;;;;;3.07;2.63;;;4.40;99.90;;;;;;4920347;29;20455;-68
2023/03/06 02:55:19;;;;;;;4.70;3.30;;;4.30;99.90;;;;;;4932443;29;20462;-68
2023/03/06 02:57:45;;;;;;;4.77;3.10;;;4.30;99.90;;;;;;4950335;28;25315;-69
2023/03/06 03:00:12;;;;;;;5.13;3.60;;;4.30;99.90;;;;;;4911239;29;20278;-69
2023/03/06 03:02:37;;;;;;;6.57;3.87;;;4.30;99.90;;;;;;4922771;29;21012;-68
2023/03/06 03:05:04;;;;;;;5.50;3.30;;;4.30;99.90;;;;;;4948254;28;20497;-68
2023/03/06 03:07:30;;;;;;;5.63;2.93;;;4.30;99.90;;;;;;4941582;28;20223;-68
2023/03/06 03:09:56;;;;;;;4.23;2.60;;;4.20;99.90;;;;;;4910262;29;20454;-69
2023/03/06 03:12:22;;;;;;;9.23;2.63;;;4.10;99.90;;;;;;4915098;29;20460;-68
2023/03/06 03:14:48;;;;;;;6.33;3.10;;;4.00;99.90;;;;;;4945201;28;20222;-69
2023/03/06 03:17:14;;;;;;;4.37;3.03;;;4.00;99.90;;;;;;4934213;28;20321;-68
2023/03/06 03:19:40;;;;;;;7.00;3.60;;;4.10;99.90;;;;;;4916744;29;20226;-68
2023/03/06 03:22:06;;;;;;;4.87;2.83;;;4.10;99.90;;;;;;4927441;29;20526;-68
2023/03/06 03:24:32;;;;;;;2.77;2.40;;;4.00;99.90;;;;;;4924430;28;20456;-69
2023/03/06 03:26:59;;;;;;;5.43;3.20;;;4.00;99.90;;;;;;4947822;28;20276;-68
2023/03/06 03:29:25;;;;;;;4.87;3.30;;;3.90;99.90;;;;;;4946900;28;20526;-69
2023/03/06 03:31:52;;;;;;;4.37;3.10;;;3.90;99.90;;;;;;4924312;29;20550;-69
2023/03/06 03:34:18;;;;;;;5.80;3.53;;;3.90;99.90;;;;;;4925444;29;21096;-69
2023/03/06 03:36:44;;;;;;;4.87;3.00;;;4.00;99.90;;;;;;4915647;29;20223;-69
2023/03/06 03:39:11;;;;;;;6.47;2.90;;;3.80;99.90;;;;;;4913150;29;20219;-69
2023/03/06 03:41:38;;;;;;;5.17;3.00;;;3.90;99.90;;;;;;4925517;29;20475;-68
2023/03/06 03:44:06;;;;;;;5.20;2.67;;;3.80;99.90;;;;;;4904107;29;20554;-68
2023/03/06 03:46:32;;;;;;;8.20;3.90;;;3.80;99.90;;;;;;4919359;29;21005;-67
2023/03/06 03:49:00;;;;;;;5.77;3.20;;;3.80;99.90;;;;;;4924483;29;20275;-68
2023/03/06 03:51:26;;;;;;;4.83;3.27;;;3.70;99.90;;;;;;4937957;28;21000;-68
2023/03/06 03:53:55;;;;;;;5.23;3.20;;;3.80;99.90;;;;;;4921428;29;20471;-69
2023/03/06 03:56:26;;;;;;;5.03;3.40;;;3.90;99.90;;;;;;4927250;29;20486;-69
2023/03/06 03:59:00;;;;;;;6.73;4.13;;;3.90;99.90;;;;;;4930153;29;20578;-68
2023/03/06 04:01:32;;;;;;;4.90;3.60;;;4.00;99.90;;;;;;4919751;29;20473;-69
2023/03/06 04:03:58;;;;;;;4.97;3.00;;;4.10;99.90;;;;;;4919358;29;20450;-69
2023/03/06 04:06:23;;;;;;;6.70;3.63;;;4.00;99.90;;;;;;4939020;28;20553;-69
2023/03/06 04:08:49;;;;;;;9.27;3.33;;;4.10;99.90;;;;;;4920823;29;20222;-71
2023/03/06 04:11:15;;;;;;;6.00;4.20;;;3.90;99.90;;;;;;4921910;29;20230;-69
2023/03/06 04:13:41;;;;;;;6.27;3.97;;;3.90;99.90;;;;;;4923473;28;20299;-68
2023/03/06 04:16:07;;;;;;;8.03;4.20;;;3.90;99.90;;;;;;4919157;29;20222;-69
2023/03/06 04:18:34;;;;;;;5.10;2.97;;;3.90;99.90;;;;;;4931323;29;20238;-69
2023/03/06 04:21:04;;;;;;;5.50;3.90;;;4.00;99.90;;;;;;4920097;29;20538;-68
2023/03/06 04:23:30;;;;;;;5.00;3.33;;;4.10;99.90;;;;;;4922700;29;20456;-68
2023/03/06 04:25:56;;;;;;;6.23;3.70;;;4.10;99.90;;;;;;4906787;29;20478;-69
2023/03/06 04:28:22;;;;;;;4.77;3.30;;;4.10;99.90;;;;;;4920402;29;20993;-69
2023/03/06 04:30:48;;;;;;;6.03;3.43;;;4.00;99.90;;;;;;4903214;29;20455;-68
2023/03/06 04:33:14;;;;;;;4.00;3.20;;;3.90;99.90;;;;;;4917526;29;20834;-69
2023/03/06 04:35:41;;;;;;;4.23;2.97;;;4.00;99.90;;;;;;4917977;29;20270;-68
2023/03/06 04:38:12;;;;;;;4.30;2.90;;;4.00;99.90;;;;;;4922569;29;20508;-69
2023/03/06 04:40:38;;;;;;;7.80;3.63;;;4.10;99.90;;;;;;4903336;29;20471;-69
2023/03/06 04:43:04;;;;;;;3.80;2.87;;;4.10;99.90;;;;;;4916415;29;20226;-68
2023/03/06 04:45:32;;;;;;;6.10;3.50;;;4.00;99.90;;;;;;4902079;29;20231;-68
2023/03/06 04:47:57;;;;;;;8.03;3.37;;;4.10;99.90;;;;;;4914401;29;20456;-69
2023/03/06 04:50:24;;;;;;;8.90;3.70;;;4.00;99.90;;;;;;4918973;29;20530;-69
2023/03/06 04:52:51;;;;;;;5.90;3.50;;;4.00;99.90;;;;;;4917201;29;20482;-69
2023/03/06 04:55:17;;;;;;;6.17;4.03;;;4.00;99.90;;;;;;4901229;29;20466;-68
2023/03/06 04:57:44;;;;;;;6.37;4.27;;;3.90;99.90;;;;;;4926998;28;20586;-68
2023/03/06 05:00:19;;;;;;;7.30;3.70;;;3.90;99.90;;;;;;4929713;29;20530;-69
2023/03/06 05:02:45;;;;;;;6.57;3.43;;;3.90;99.90;;;;;;4904268;29;20467;-69
2023/03/06 05:05:12;;;;;;;4.90;3.47;;;4.00;99.90;;;;;;4944769;28;20471;-69
2023/03/06 05:07:38;;;;;;;3.80;2.80;;;3.90;99.90;;;;;;4914417;29;20515;-68
2023/03/06 05:10:05;;;;;;;6.40;3.10;;;4.00;99.90;;;;;;4925070;28;20478;-69
2023/03/06 05:12:30;;;;;;;6.23;3.70;;;3.90;99.90;;;;;;4906417;29;20463;-69
2023/03/06 05:14:57;;;;;;;6.53;3.60;;;3.80;99.90;;;;;;4922920;28;20469;-68
2023/03/06 05:17:22;;;;;;;5.50;3.67;;;3.70;99.90;;;;;;4940930;28;20600;-68
2023/03/06 05:19:48;;;;;;;5.70;3.70;;;3.70;99.90;;;;;;4930685;28;20454;-68
2023/03/06 05:22:14;;;;;;;7.27;4.20;;;3.70;99.90;;;;;;4925005;28;20233;-69
2023/03/06 05:24:40;;;;;;;7.80;4.20;;;3.90;99.90;;;;;;4903813;29;20223;-68
2023/03/06 05:27:06;;;;;;;6.90;3.80;;;4.10;99.90;;;;;;4931345;28;20607;-68
2023/03/06 05:29:31;;;;;;;7.17;3.97;;;4.20;99.90;;;;;;4914538;28;20510;-68
2023/03/06 05:31:57;;;;;;;5.17;3.80;;;4.10;99.90;;;;;;4941959;28;20249;-68
2023/03/06 05:34:23;;;;;;;5.80;3.90;;;4.10;99.90;;;;;;4922740;29;20245;-68
2023/03/06 05:36:49;;;;;;;7.47;3.90;;;4.10;99.90;;;;;;4901370;29;20447;-68
2023/03/06 05:39:14;;;;;;;9.30;4.40;;;4.20;99.90;;;;;;4926859;29;20215;-68
2023/03/06 05:41:40;;;;;;;7.80;4.07;;;4.10;99.90;;;;;;4920515;28;20228;-68
2023/03/06 05:44:06;;;;;;;5.60;3.83;;;4.10;99.90;;;;;;4921579;29;20230;-68
2023/03/06 05:46:31;;;;;;;8.43;4.37;;;4.20;99.90;;;;;;4928743;28;20236;-68
2023/03/06 05:48:57;;;;;;;6.10;4.20;;;4.30;99.90;;;;;;4929736;28;20234;-69
2023/03/06 05:51:24;;;;;;;6.27;3.37;;;4.20;99.90;;;;;;4927457;29;20239;-68
2023/03/06 05:53:49;;;;;;;4.40;3.60;;;3.90;99.90;;;;;;4921065;28;20230;-67
2023/03/06 05:56:15;;;;;;;6.07;3.80;;;3.80;99.90;;;;;;4942478;28;20456;-69
2023/03/06 05:58:41;;;;;;;6.80;4.13;;;3.80;99.90;;;;;;4909170;29;20225;-67
2023/03/06 06:01:12;;;;;;;5.70;4.10;;;4.00;99.90;;;;;;4923844;29;20254;-67
2023/03/06 06:03:38;;;;;;;6.50;4.33;;;4.00;99.90;;;;;;4921385;28;20268;-67
2023/03/06 06:06:05;;;;;;;5.97;4.07;;;4.00;99.90;;;;;;4926747;29;20482;-67
2023/03/06 06:08:31;;;;;;;5.37;3.47;;;3.90;99.90;;;;;;4921652;29;20467;-67
2023/03/06 06:10:56;;;;;;;7.63;4.27;;;3.80;99.90;;;;;;4908523;29;20545;-67
2023/03/06 06:13:22;;;;;;;4.50;3.50;;;3.80;99.90;;;;;;4917662;29;20694;-68
2023/03/06 06:15:47;;;;;;;8.23;5.00;;;3.70;99.90;;;;;;4917739;28;20219;-67
2023/03/06 06:18:13;;;;;;;11.10;5.07;;;3.70;99.90;;;;;;4904405;29;20737;-67
2023/03/06 06:20:39;;;;;;;7.37;4.30;;;3.70;99.90;;;;;;4925378;28;20744;-67
2023/03/06 06:23:04;;;;;;;7.93;4.47;;;3.70;99.90;;;;;;4929529;29;20700;-67
2023/03/06 06:25:31;;;;;;;9.60;4.30;;;3.80;99.90;;;;;;4920542;29;20234;-67
2023/03/06 06:27:56;;;;;;;9.90;5.10;;;3.80;99.90;;;;;;4919635;29;20230;-68
2023/03/06 06:30:23;;;;;;;9.20;4.80;;;3.70;99.90;;;;;;4922081;29;20463;-69
2023/03/06 06:32:49;;;;;;;11.93;6.60;;;3.70;99.90;;;;;;4919465;29;20298;-68
2023/03/06 06:35:14;;;;;;;8.60;5.13;;;3.70;99.90;;;;;;4916789;29;20542;-69
2023/03/06 06:37:40;;;;;;;9.37;4.80;;;3.60;99.90;;;;;;4916055;29;20476;-69
2023/03/06 06:40:07;;;;;;;10.00;5.60;;;3.60;99.90;;;;;;4923795;29;20321;-69
2023/03/06 06:42:35;;;;;;;8.53;4.80;;;3.60;99.90;;;;;;4926617;29;20223;-69
2023/03/06 06:45:01;;;;;;;10.90;6.17;;;3.50;99.90;;;;;;4919971;29;20450;-69
2023/03/06 06:47:27;;;;;;;8.33;4.50;;;3.70;99.90;;;;;;4912106;28;20455;-69
2023/03/06 06:49:54;;;;;;;10.90;5.27;;;3.70;99.90;;;;;;4926258;29;20508;-69
2023/03/06 06:52:20;;;;;;;6.90;4.57;;;3.80;99.90;;;;;;4943801;28;20227;-68
2023/03/06 06:54:46;;;;;;;9.40;5.10;;;3.60;99.90;;;;;;4924981;29;20455;-69
2023/03/06 06:57:12;;;;;;;11.93;5.57;;;3.70;99.90;;;;;;4915612;29;20460;-69
2023/03/06 06:59:37;;;;;;;12.07;6.20;;;3.70;99.90;;;;;;4927302;29;20242;-67
2023/03/06 07:02:03;;;;;;;15.43;7.13;;;3.70;99.90;;;;;;4906635;29;20239;-69
2023/03/06 07:04:29;;;;;;;13.03;5.80;;;3.60;99.90;;;;;;4903694;29;20219;-69
2023/03/06 07:06:55;;;;;;;13.90;6.07;;;3.60;99.90;;;;;;4923788;29;20606;-68
2023/03/06 07:09:21;;;;;;;8.17;4.97;;;3.70;99.90;;;;;;4930300;28;20234;-69
2023/03/06 07:11:47;;;;;;;11.80;5.53;;;3.70;99.90;;;;;;4922830;29;20457;-68
2023/03/06 07:14:13;;;;;;;13.30;5.23;;;3.70;99.90;;;;;;4953132;28;20620;-69
2023/03/06 07:16:38;;;;;;;7.03;4.50;;;3.70;99.90;;;;;;4923173;29;20224;-69
2023/03/06 07:19:05;;;;;;;9.30;4.57;;;3.80;99.90;;;;;;4918370;29;20509;-69
2023/03/06 07:21:30;;;;;;;7.40;4.30;;;3.70;99.90;;;;;;4933675;28;20226;-68
2023/03/06 07:23:56;;;;;;;9.27;6.20;;;3.80;99.90;;;;;;4947989;28;20466;-69
2023/03/06 07:26:26;;;;;;;11.80;5.30;;;3.80;99.90;;;;;;4916306;29;20246;-69
2023/03/06 07:28:53;;;;;;;11.67;5.50;;;3.70;99.90;;;;;;4947975;28;20484;-68
2023/03/06 07:31:25;;;;;;;7.37;4.37;;;3.80;99.90;;;;;;4922874;29;20481;-69
2023/03/06 07:33:52;;;;;;;9.60;5.43;;;3.70;99.90;;;;;;4924128;29;20552;-69
2023/03/06 07:36:18;;;;;;;9.77;5.37;;;3.80;99.90;;;;;;4914483;29;20459;-67
2023/03/06 07:38:44;;;;;;;11.20;5.73;;;3.80;99.90;;;;;;4920949;28;20549;-69
2023/03/06 07:41:12;;;;;;;9.00;5.43;;;3.90;99.90;;;;;;4926736;28;20474;-68
2023/03/06 07:43:42;;;;;;;11.73;5.23;;;3.80;99.90;;;;;;4923797;29;20223;-68
2023/03/06 07:46:08;;;;;;;6.77;4.50;;;3.80;99.90;;;;;;4905902;29;20483;-69
2023/03/06 07:48:35;;;;;;;11.83;5.80;;;3.90;99.90;;;;;;4928279;29;20465;-69
2023/03/06 07:51:23;;;;;;;11.10;5.13;;;3.90;99.90;;;;;;4930591;28;20503;-69
2023/03/06 07:53:49;;;;;;;6.67;4.10;;;4.00;99.90;;;;;;4905522;29;20539;-70
2023/03/06 07:56:15;;;;;;;14.90;6.27;;;4.00;99.90;;;;;;4909503;29;21062;-68
2023/03/06 07:58:44;;;;;;;10.60;5.63;;;3.90;99.90;;;;;;4922193;29;20474;-67
2023/03/06 08:01:13;;;;;;;9.70;5.67;;;3.90;99.90;;;;;;4929082;29;21011;-68
2023/03/06 08:03:38;;;;;;;11.40;5.87;;;3.90;99.90;;;;;;4919738;28;20463;-67
2023/03/06 08:06:33;;;;;;;10.90;5.80;;;3.80;99.90;;;;;;4923209;28;20841;-68
2023/03/06 08:08:59;;;;;;;11.77;6.17;;;3.90;99.90;;;;;;4916416;29;20245;-68
2023/03/06 08:11:28;;;;;;;9.70;5.97;;;3.80;99.90;;;;;;4926428;29;20478;-68
2023/03/06 08:13:55;;;;;;;17.57;5.40;;;3.90;99.90;;;;;;4926731;29;20245;-68
2023/03/06 08:16:23;;;;;;;15.53;6.07;;;3.90;99.90;;;;;;4917070;29;20472;-68
2023/03/06 08:18:49;;;;;;;11.20;6.00;;;4.00;99.90;;;;;;4932020;28;20968;-68
2023/03/06 08:21:20;;;;;;;11.87;5.37;;;4.00;99.90;;;;;;4905593;29;21025;-68
2023/03/06 08:23:46;;;;;;;12.23;6.23;;;4.00;99.90;;;;;;4925353;29;20475;-68
2023/03/06 08:26:23;;;;;;;13.80;6.57;;;4.10;99.90;;;;;;4921333;29;20487;-68
2023/03/06 08:28:50;;;;;;;12.10;6.10;;;4.10;99.90;;;;;;4921233;29;20486;-68
2023/03/06 08:31:41;;;;;;;13.47;6.67;;;4.10;99.90;;;;;;4924118;29;20477;-68
2023/03/06 08:34:18;;;;;;;8.90;5.00;;;4.10;99.90;;;;;;4928207;29;20482;-68
2023/03/06 08:36:44;;;;;;;11.10;4.87;;;4.10;99.90;;;;;;4920143;29;20473;-68
2023/03/06 08:39:10;;;;;;;9.50;6.37;;;4.20;99.90;;;;;;4917083;29;20459;-68
2023/03/06 08:41:36;;;;;;;9.27;5.73;;;4.20;99.90;;;;;;4919158;29;20282;-68
2023/03/06 08:44:02;;;;;;;10.80;6.33;;;4.20;99.90;;;;;;4918953;29;20756;-68
2023/03/06 08:46:30;;;;;;;12.30;5.77;;;4.30;99.90;;;;;;4938697;28;20483;-68
2023/03/06 08:48:56;;;;;;;8.40;5.80;;;4.30;99.90;;;;;;4919861;29;21049;-68
2023/03/06 08:51:22;;;;;;;12.47;5.87;;;4.30;99.90;;;;;;4926810;29;20515;-68
2023/03/06 08:53:48;;;;;;;11.93;5.70;;;4.20;99.90;;;;;;4925888;28;20567;-69
2023/03/06 08:56:16;;;;;;;13.40;5.93;;;4.30;99.90;;;;;;4925418;28;20467;-68
2023/03/06 08:58:42;;;;;;;10.17;5.67;;;4.30;99.90;;;;;;4921529;29;20475;-68
2023/03/06 09:01:16;;;;;;;9.67;5.10;;;4.30;99.90;;;;;;4940622;28;20530;-68
2023/03/06 09:03:42;;;;;;;11.77;6.10;;;4.40;99.90;;;;;;4933709;28;20328;-68
2023/03/06 09:06:08;;;;;;;12.13;6.20;;;4.50;99.90;;;;;;4936888;28;20932;-68
2023/03/06 09:08:34;;;;;;;11.37;6.60;;;4.50;99.90;;;;;;4901412;29;20468;-68
2023/03/06 09:11:00;;;;;;;11.33;6.40;;;4.50;99.90;;;;;;4945045;28;20242;-68
2023/03/06 09:13:25;;;;;;;9.03;5.30;;;4.60;99.90;;;;;;4921598;28;20230;-68
2023/03/06 09:15:51;;;;;;;13.40;6.40;;;4.60;99.90;;;;;;4928360;28;20238;-68
2023/03/06 09:18:17;;;;;;;11.43;5.90;;;4.70;99.90;;;;;;4941365;28;20231;-68
2023/03/06 09:20:42;;;;;;;14.10;7.00;;;4.70;99.90;;;;;;4923158;28;20255;-68
2023/03/06 09:23:09;;;;;;;14.33;7.90;;;4.90;99.90;;;;;;4918793;29;20286;-69
2023/03/06 09:25:34;;;;;;;12.00;6.00;;;4.90;99.90;;;;;;4931819;28;20250;-67
2023/03/06 09:28:00;;;;;;;14.47;6.60;;;5.00;99.90;;;;;;4910813;29;20460;-69
2023/03/06 09:30:29;;;;;;;11.50;6.40;;;5.10;99.90;;;;;;4920354;29;20225;-68
2023/03/06 09:32:55;;;;;;;11.83;7.10;;;5.30;99.90;;;;;;4923212;29;20223;-68
2023/03/06 09:35:21;;;;;;;12.00;6.53;;;5.30;99.90;;;;;;4926878;28;20458;-67
2023/03/06 09:37:46;;;;;;;9.37;5.70;;;5.30;99.90;;;;;;4924632;29;20471;-68
2023/03/06 09:40:37;;;;;;;12.13;6.17;;;5.30;99.90;;;;;;4924184;29;20235;-68
2023/03/06 09:43:03;;;;;;;12.83;6.23;;;5.30;99.90;;;;;;4923772;29;20230;-68
2023/03/06 09:45:31;;;;;;;12.60;6.00;;;5.30;99.90;;;;;;4931751;28;20483;-69
2023/03/06 09:48:06;;;;;;;9.87;5.80;;;5.30;99.90;;;;;;4921357;29;20283;-69
2023/03/06 09:50:44;;;;;;;10.30;6.03;;;5.30;99.90;;;;;;4922111;28;20518;-69
2023/03/06 09:53:31;;;;;;;11.50;6.00;;;5.40;99.90;;;;;;4920445;29;20465;-68
2023/03/06 09:56:20;;;;;;;22.73;8.23;;;5.40;99.90;;;;;;4913363;29;20447;-69
2023/03/06 09:58:50;;;;;;;15.03;6.80;;;5.40;99.90;;;;;;4919584;28;20460;-68
2023/03/06 10:01:21;;;;;;;16.00;7.17;;;5.40;99.90;;;;;;4917678;29;20464;-69
2023/03/06 10:04:20;;;;;;;12.43;6.60;;;5.40;99.90;;;;;;4913732;29;20440;-69
2023/03/06 10:06:47;;;;;;;23.43;6.67;;;5.50;99.90;;;;;;4920717;29;20511;-69
2023/03/06 10:09:37;;;;;;;14.40;6.80;;;5.50;99.90;;;;;;4900698;29;20479;-68
2023/03/06 10:12:11;;;;;;;11.20;6.47;;;5.50;99.90;;;;;;4919504;28;20897;-68
2023/03/06 10:14:41;;;;;;;12.37;6.57;;;5.70;99.90;;;;;;4914608;29;20480;-68
2023/03/06 10:17:19;;;;;;;15.97;6.87;;;5.80;99.90;;;;;;4922660;29;20527;-68
2023/03/06 10:19:46;;;;;;;14.47;7.37;;;5.90;99.90;;;;;;4927153;28;20478;-68
2023/03/06 10:22:33;;;;;;;14.63;6.70;;;6.00;99.90;;;;;;4940051;28;20563;-68
2023/03/06 10:25:17;;;;;;;15.47;8.00;;;6.00;99.90;;;;;;4923199;29;20506;-68
2023/03/06 10:28:07;;;;;;;13.70;7.50;;;6.00;99.90;;;;;;4926262;28;20471;-68
2023/03/06 10:31:04;;;;;;;13.30;7.43;;;6.10;99.90;;;;;;4926342;28;20471;-68
2023/03/06 10:33:52;;;;;;;14.63;7.37;;;6.10;99.90;;;;;;4925482;29;21014;-67
2023/03/06 10:36:19;;;;;;;18.90;9.90;;;6.10;99.90;;;;;;4928621;28;20482;-68
2023/03/06 10:38:48;;;;;;;13.97;7.50;;;6.00;99.90;;;;;;4926943;29;20447;-68
2023/03/06 10:41:26;;;;;;;14.03;7.77;;;6.00;99.90;;;;;;4924857;29;20853;-69
2023/03/06 10:43:58;;;;;;;11.07;6.87;;;6.10;99.90;;;;;;4927609;28;20455;-69
2023/03/06 10:46:33;;;;;;;15.03;7.53;;;6.10;99.90;;;;;;4943196;28;20468;-68
2023/03/06 10:49:28;;;;;;;12.00;6.50;;;6.10;99.90;;;;;;4932262;28;20454;-68
2023/03/06 10:52:23;;;;;;;16.20;7.87;;;6.10;99.90;;;;;;4925519;29;20557;-68
2023/03/06 10:54:49;;;;;;;14.30;8.37;;;6.10;99.90;;;;;;4919336;29;20518;-69
2023/03/06 10:57:25;;;;;;;16.80;8.90;;;6.20;99.90;;;;;;4925077;29;20487;-68
2023/03/06 11:00:07;;;;;;;15.73;10.10;;;6.20;99.90;;;;;;4928988;29;20227;-69
2023/03/06 11:02:39;;;;;;;14.20;8.73;;;6.30;99.90;;;;;;4921241;29;20480;-69
2023/03/06 11:05:17;;;;;;;13.50;7.90;;;6.40;99.90;;;;;;4925546;29;20562;-68
2023/03/06 11:08:00;;;;;;;15.47;8.80;;;6.70;99.90;;;;;;4915927;29;20476;-68
2023/03/06 11:10:27;;;;;;;15.67;9.00;;;6.80;99.90;;;;;;4922365;29;20818;-69
2023/03/06 11:12:59;;;;;;;21.83;10.27;;;6.90;99.90;;;;;;4905965;29;20965;-69
2023/03/06 11:15:26;;;;;;;12.83;8.30;;;7.10;99.90;;;;;;4949184;28;20447;-68
2023/03/06 11:18:02;;;;;;;16.10;8.53;;;7.10;99.90;;;;;;4925512;29;20449;-69
2023/03/06 11:20:41;;;;;;;15.83;8.13;;;7.20;99.90;;;;;;4927577;28;20554;-69
2023/03/06 11:23:15;;;;;;;16.73;8.50;;;7.30;99.90;;;;;;4930390;29;20957;-69
2023/03/06 11:25:47;;;;;;;22.53;10.07;;;7.40;99.90;;;;;;4929407;29;20480;-68
2023/03/06 11:28:27;;;;;;;14.80;7.43;;;7.40;99.90;;;;;;4944222;28;20472;-69
2023/03/06 11:31:15;;;;;;;13.77;7.77;;;7.50;99.90;;;;;;4916470;29;20466;-69
2023/03/06 11:34:05;;;;;;;12.53;6.77;;;7.70;99.90;;;;;;4924848;28;20471;-67
2023/03/06 11:36:40;;;;;;;12.57;7.17;;;7.70;99.90;;;;;;4922594;29;20463;-68
2023/03/06 11:39:42;;;;;;;10.50;6.70;;;7.60;99.90;;;;;;4943059;28;20550;-69
2023/03/06 11:42:31;;;;;;;11.97;7.70;;;7.60;99.90;;;;;;4917015;29;20498;-71
2023/03/06 11:45:27;;;;;;;24.53;12.07;;;7.60;99.90;;;;;;4918148;29;20834;-71
2023/03/06 11:48:14;;;;;;;25.57;11.63;;;7.50;99.90;;;;;;4917528;29;20460;-71
2023/03/06 11:50:44;;;;;;;45.30;21.00;;;7.40;99.90;;;;;;4911045;28;20473;-70
2023/03/06 11:53:16;;;;;;;55.30;25.70;;;7.50;99.90;;;;;;4929716;29;20526;-71
2023/03/06 11:56:17;;;;;;;36.43;20.03;;;7.50;99.90;;;;;;4921996;29;20973;-71
2023/03/06 11:59:10;;;;;;;35.57;17.77;;;7.50;99.90;;;;;;4915342;29;20500;-71
2023/03/06 12:01:44;;;;;;;17.27;10.67;;;7.40;99.90;;;;;;4906457;29;20476;-71
2023/03/06 12:04:25;;;;;;;22.87;10.77;;;7.30;99.90;;;;;;4906751;29;20545;-71
2023/03/06 12:07:15;;;;;;;46.13;22.20;;;7.30;99.90;;;;;;4925504;29;20482;-72
2023/03/06 12:09:44;;;;;;;44.33;22.03;;;7.30;99.90;;;;;;4922223;29;20462;-69
2023/03/06 12:12:16;;;;;;;36.50;17.80;;;7.30;99.90;;;;;;4919427;29;20475;-71
2023/03/06 12:14:54;;;;;;;29.20;16.60;;;7.30;99.90;;;;;;4919329;29;20523;-70
2023/03/06 12:17:33;;;;;;;27.23;13.77;;;7.30;99.90;;;;;;4921261;28;20469;-71
2023/03/06 12:20:30;;;;;;;14.17;7.93;;;7.40;99.90;;;;;;4925730;29;21266;-72
2023/03/06 12:23:08;;;;;;;13.93;7.03;;;7.60;99.90;;;;;;4920749;28;20482;-72
2023/03/06 12:25:41;;;;;;;14.10;7.80;;;7.70;99.90;;;;;;4921527;28;20564;-69
2023/03/06 12:28:09;;;;;;;10.90;6.53;;;7.80;99.90;;;;;;4943735;28;20553;-71
2023/03/06 12:31:01;;;;;;;12.53;6.63;;;7.90;99.90;;;;;;4926166;28;20475;-69
2023/03/06 12:34:00;;;;;;;14.87;7.47;;;8.00;99.90;;;;;;4919184;29;20463;-68
2023/03/06 12:36:57;;;;;;;11.77;6.10;;;8.00;99.90;;;;;;4919937;29;20502;-69
2023/03/06 12:39:31;;;;;;;13.70;7.30;;;8.20;99.90;;;;;;4920654;28;20467;-69
2023/03/06 12:42:18;;;;;;;12.47;6.63;;;8.50;99.90;;;;;;4907439;29;20478;-69
2023/03/06 12:44:55;;;;;;;11.63;7.40;;;8.50;99.90;;;;;;4936089;28;20474;-69
2023/03/06 12:47:26;;;;;;;10.17;6.37;;;8.60;99.90;;;;;;4942373;28;20487;-69
2023/03/06 12:50:01;;;;;;;9.90;6.00;;;8.50;99.90;;;;;;4920472;29;20560;-69
2023/03/06 12:52:30;;;;;;;10.87;6.07;;;8.40;99.90;;;;;;4924903;28;20474;-70
2023/03/06 12:54:58;;;;;;;11.40;5.60;;;8.50;99.90;;;;;;4927339;29;20467;-70
2023/03/06 12:57:25;;;;;;;13.07;5.67;;;8.40;99.90;;;;;;4915731;29;20467;-70
2023/03/06 12:59:52;;;;;;;9.10;5.63;;;8.30;99.90;;;;;;4917742;29;20543;-69
2023/03/06 13:02:36;;;;;;;8.07;5.80;;;8.20;99.90;;;;;;4936139;28;20899;-70
2023/03/06 13:05:27;;;;;;;14.13;6.23;;;8.10;99.90;;;;;;4925190;29;20507;-69
2023/03/06 13:08:07;;;;;;;9.63;5.53;;;8.10;99.90;;;;;;4925384;29;20470;-70